Terminal Aerodrome Forecast
Issued by NWS

Home | Current Version | Previous Version | Text Only | Print | Product List | Glossary Off
Versions: 1 2 3 4 5 6 7 8 9 10 11 12 13

000
FTUS43 KMPX 272300
TAFRWF
TAF
KRWF 272332Z 2800/2824 30009KT P6SM SCT040 BKN070
     FM280600 27014KT P6SM BKN100
     FM281400 28018G25KT P6SM BKN025 OVC040
     FM282000 28020G28KT P6SM SCT025 OVC040=

USA.gov is the U.S. government's official web portal to all federal, state and local government web resources and services.